createdAt,value
2019-04-30T00:00:06.165Z,80.30
2019-04-30T00:01:07.407Z,83.20
2019-04-30T00:02:05.686Z,82.10
2019-04-30T00:03:06.781Z,84.20
2019-04-30T00:04:05.751Z,84.60
2019-04-30T00:05:05.470Z,84.40
2019-04-30T00:06:07.230Z,80.30
2019-04-30T00:07:05.637Z,78.30
2019-04-30T00:08:05.814Z,79.10
2019-04-30T00:09:05.373Z,80.80
2019-04-30T00:10:06.024Z,73.50
2019-04-30T00:11:05.360Z,69.50
2019-04-30T00:12:05.609Z,66.50
2019-04-30T00:13:05.999Z,72.20
2019-04-30T00:14:05.629Z,66.20
2019-04-30T00:15:06.086Z,66.70
2019-04-30T00:16:05.368Z,66.00
2019-04-30T00:17:03.632Z,69.70
2019-04-30T00:18:05.415Z,70.80
2019-04-30T00:19:03.437Z,69.10
2019-04-30T00:20:05.208Z,70.70
2019-04-30T00:21:05.266Z,73.30
2019-04-30T00:22:03.143Z,70.70
2019-04-30T00:23:05.036Z,71.10
2019-04-30T00:24:06.257Z,68.90
2019-04-30T00:25:02.846Z,67.00
2019-04-30T00:26:06.277Z,67.70
2019-04-30T00:27:02.665Z,66.50
2019-04-30T00:28:05.248Z,68.30
2019-04-30T00:29:02.456Z,71.50
2019-04-30T00:30:07.309Z,72.50
2019-04-30T00:31:02.260Z,69.00
2019-04-30T00:32:04.430Z,71.10
2019-04-30T00:33:02.068Z,73.30
2019-04-30T00:34:01.963Z,73.40
2019-04-30T00:35:01.869Z,68.20
2019-04-30T00:36:01.766Z,74.80
2019-04-30T00:37:01.682Z,74.60
2019-04-30T00:38:01.569Z,74.20
2019-04-30T00:39:01.475Z,73.40
2019-04-30T00:40:01.376Z,74.70
2019-04-30T00:41:01.907Z,77.50
2019-04-30T00:42:01.187Z,74.30
2019-04-30T00:43:05.278Z,76.30
2019-04-30T00:44:00.978Z,72.20
2019-04-30T00:45:06.679Z,76.60
2019-04-30T00:46:00.780Z,80.60
2019-04-30T00:47:05.031Z,79.20
2019-04-30T00:48:00.596Z,74.90
2019-04-30T00:49:09.299Z,83.20
2019-04-30T00:50:00.546Z,83.20
2019-04-30T00:51:00.286Z,91.60
2019-04-30T00:52:00.206Z,91.00
2019-04-30T00:53:00.090Z,91.20
2019-04-30T00:53:59.988Z,95.50
2019-04-30T00:55:00.370Z,95.70
2019-04-30T00:55:59.796Z,99.70
2019-04-30T00:57:06.300Z,85.60
2019-04-30T00:57:59.594Z,78.00
2019-04-30T00:59:02.431Z,75.80
2019-04-30T00:59:59.408Z,74.70
2019-04-30T01:00:59.805Z,74.60
2019-04-30T01:01:59.213Z,74.10
2019-04-30T01:03:00.807Z,73.60
2019-04-30T01:03:59.001Z,76.90
2019-04-30T01:05:05.258Z,74.00
2019-04-30T01:05:58.801Z,80.70
2019-04-30T01:07:00.280Z,80.70
2019-04-30T01:07:58.622Z,87.70
2019-04-30T01:09:05.375Z,83.50
2019-04-30T01:09:58.406Z,90.20
2019-04-30T01:10:59.753Z,90.20
2019-04-30T01:11:58.211Z,87.30
2019-04-30T01:13:01.760Z,90.00
2019-04-30T01:13:59.081Z,78.00
2019-04-30T01:14:58.999Z,70.60
2019-04-30T01:15:58.815Z,63.90
2019-04-30T01:16:59.430Z,65.70
2019-04-30T01:17:59.296Z,63.20
2019-04-30T01:18:58.642Z,63.50
2019-04-30T01:19:59.160Z,61.60
2019-04-30T01:20:58.648Z,69.70
2019-04-30T01:21:57.221Z,71.50
2019-04-30T01:22:58.679Z,74.10
2019-04-30T01:23:59.035Z,68.60
2019-04-30T01:25:02.850Z,72.20
2019-04-30T01:25:58.476Z,64.00
2019-04-30T01:27:00.774Z,65.30
2019-04-30T01:27:58.491Z,67.20
2019-04-30T01:29:00.528Z,63.80
2019-04-30T01:29:56.426Z,67.40
2019-04-30T01:30:58.732Z,63.50
2019-04-30T01:31:56.229Z,69.00
2019-04-30T01:32:56.931Z,73.70
2019-04-30T01:33:56.028Z,72.10
2019-04-30T01:34:55.929Z,71.10
2019-04-30T01:35:55.831Z,67.50
2019-04-30T01:36:55.733Z,75.60
2019-04-30T01:37:55.758Z,76.80
2019-04-30T01:38:55.535Z,74.40
2019-04-30T01:39:55.435Z,73.10
2019-04-30T01:40:55.335Z,82.50
2019-04-30T01:41:55.235Z,80.40
2019-04-30T01:42:55.151Z,76.80
2019-04-30T01:43:55.037Z,81.80
2019-04-30T01:44:55.045Z,88.20
2019-04-30T01:45:54.837Z,84.20
2019-04-30T01:46:54.740Z,81.10
2019-04-30T01:47:54.789Z,87.30
2019-04-30T01:48:54.545Z,85.60
2019-04-30T01:49:55.811Z,91.50
2019-04-30T01:50:54.342Z,90.90
2019-04-30T01:51:57.450Z,92.80
2019-04-30T01:52:54.161Z,97.30
2019-04-30T01:53:54.047Z,98.60
2019-04-30T01:54:53.945Z,82.80
2019-04-30T01:55:53.848Z,95.70
2019-04-30T01:56:53.752Z,90.90
2019-04-30T01:57:53.649Z,88.80
2019-04-30T01:58:53.690Z,100.10
2019-04-30T01:59:53.456Z,88.30
2019-04-30T02:00:53.356Z,89.50
2019-04-30T02:01:53.252Z,83.10
2019-04-30T02:02:53.155Z,84.20
2019-04-30T02:03:53.071Z,85.00
2019-04-30T02:04:52.956Z,85.00
2019-04-30T02:05:52.965Z,93.30
2019-04-30T02:06:52.761Z,98.70
2019-04-30T02:07:52.661Z,104.00
2019-04-30T02:08:52.576Z,102.30
2019-04-30T02:09:52.459Z,101.00
2019-04-30T02:10:52.361Z,88.50
2019-04-30T02:11:52.264Z,84.80
2019-04-30T02:12:52.280Z,81.40
2019-04-30T02:13:52.081Z,76.40
2019-04-30T02:14:51.975Z,79.10
2019-04-30T02:15:51.866Z,72.40
2019-04-30T02:16:51.774Z,65.90
2019-04-30T02:17:51.670Z,65.70
2019-04-30T02:18:51.588Z,64.20
2019-04-30T02:19:56.524Z,67.90
2019-04-30T02:20:51.373Z,67.10
2019-04-30T02:21:51.274Z,67.60
2019-04-30T02:22:51.174Z,62.90
2019-04-30T02:23:51.089Z,63.40
2019-04-30T02:24:50.977Z,66.50
2019-04-30T02:25:50.880Z,60.70
2019-04-30T02:26:50.885Z,63.30
2019-04-30T02:27:50.679Z,65.00
2019-04-30T02:28:50.596Z,65.30
2019-04-30T02:29:50.486Z,67.10
2019-04-30T02:30:50.804Z,65.10
2019-04-30T02:31:50.562Z,62.80
2019-04-30T02:32:52.658Z,61.10
2019-04-30T02:33:50.365Z,63.40
2019-04-30T02:34:49.988Z,61.80
2019-04-30T02:35:50.190Z,62.20
2019-04-30T02:36:50.027Z,62.70
2019-04-30T02:37:50.550Z,63.10
2019-04-30T02:38:49.618Z,65.10
2019-04-30T02:39:50.328Z,66.60
2019-04-30T02:40:49.998Z,69.90
2019-04-30T02:41:50.574Z,73.80
2019-04-30T02:42:49.780Z,77.80
2019-04-30T02:43:49.795Z,84.80
2019-04-30T02:44:50.365Z,82.40
2019-04-30T02:45:49.812Z,83.90
2019-04-30T02:46:50.455Z,88.80
2019-04-30T02:47:49.995Z,88.60
2019-04-30T02:48:50.450Z,86.20
2019-04-30T02:49:50.026Z,88.00
2019-04-30T02:50:49.142Z,85.50
2019-04-30T02:51:49.913Z,92.80
2019-04-30T02:52:50.477Z,90.10
2019-04-30T02:53:50.193Z,85.30
2019-04-30T02:54:49.974Z,84.40
2019-04-30T02:55:49.929Z,84.60
2019-04-30T02:56:50.440Z,79.80
2019-04-30T02:57:49.748Z,74.80
2019-04-30T02:58:50.186Z,77.60
2019-04-30T02:59:49.675Z,76.80
2019-04-30T03:00:49.606Z,76.90
2019-04-30T03:01:49.918Z,70.80
2019-04-30T03:02:47.199Z,68.30
2019-04-30T03:03:49.497Z,60.90
2019-04-30T03:04:47.013Z,64.00
2019-04-30T03:05:49.547Z,62.00
2019-04-30T03:06:46.797Z,57.20
2019-04-30T03:07:46.694Z,53.00
2019-04-30T03:08:46.597Z,52.70
2019-04-30T03:09:46.512Z,54.10
2019-04-30T03:10:46.396Z,50.50
2019-04-30T03:11:46.297Z,48.80
2019-04-30T03:12:46.197Z,40.00
2019-04-30T03:13:46.094Z,40.50
2019-04-30T03:14:46.010Z,42.90
2019-04-30T03:15:45.897Z,43.00
2019-04-30T03:16:45.817Z,43.60
2019-04-30T03:17:45.699Z,42.30
2019-04-30T03:18:45.594Z,39.30
2019-04-30T03:19:45.509Z,44.80
2019-04-30T03:20:45.395Z,44.20
2019-04-30T03:21:45.296Z,42.70
2019-04-30T03:22:45.208Z,42.90
2019-04-30T03:23:45.096Z,43.50
2019-04-30T03:24:45.013Z,39.40
2019-04-30T03:25:44.892Z,37.70
2019-04-30T03:26:44.792Z,36.90
2019-04-30T03:27:44.693Z,37.50
2019-04-30T03:28:44.593Z,35.80
2019-04-30T03:29:44.513Z,34.60
2019-04-30T03:30:44.423Z,35.70
2019-04-30T03:31:45.693Z,36.40
2019-04-30T03:32:50.317Z,38.20
2019-04-30T03:33:44.126Z,39.30
2019-04-30T03:34:44.016Z,39.10
2019-04-30T03:35:47.825Z,39.90
2019-04-30T03:36:43.790Z,41.90
2019-04-30T03:37:44.006Z,42.30
2019-04-30T03:38:43.588Z,41.80
2019-04-30T03:39:43.502Z,40.90
2019-04-30T03:40:43.386Z,39.90
2019-04-30T03:41:43.301Z,41.70
2019-04-30T03:42:43.184Z,44.60
2019-04-30T03:43:43.084Z,44.40
2019-04-30T03:44:42.986Z,42.30
2019-04-30T03:45:42.896Z,46.10
2019-04-30T03:46:42.793Z,47.00
2019-04-30T03:47:43.162Z,51.50
2019-04-30T03:48:42.584Z,49.80
2019-04-30T03:49:42.485Z,49.00
2019-04-30T03:50:55.534Z,54.20
2019-04-30T03:51:42.284Z,56.90
2019-04-30T03:52:42.178Z,57.60
2019-04-30T03:53:42.659Z,59.70
2019-04-30T03:54:41.978Z,60.40
2019-04-30T03:55:41.893Z,61.10
2019-04-30T03:56:41.777Z,59.80
2019-04-30T03:57:41.676Z,58.90
2019-04-30T03:58:41.575Z,59.90
2019-04-30T03:59:41.473Z,58.40
2019-04-30T04:00:42.494Z,55.50
2019-04-30T04:01:41.281Z,58.60
2019-04-30T04:02:41.178Z,61.60
2019-04-30T04:03:42.281Z,58.40
2019-04-30T04:04:41.080Z,60.60
2019-04-30T04:05:40.886Z,60.60
2019-04-30T04:06:40.779Z,54.60
2019-04-30T04:07:40.678Z,59.50
2019-04-30T04:08:43.215Z,57.30
2019-04-30T04:09:40.468Z,58.50
2019-04-30T04:10:40.554Z,60.80
2019-04-30T04:11:40.383Z,57.20
2019-04-30T04:12:40.170Z,58.80
2019-04-30T04:13:40.178Z,54.00
2019-04-30T04:14:39.968Z,58.60
2019-04-30T04:15:40.191Z,59.90
2019-04-30T04:16:41.084Z,59.50
2019-04-30T04:17:39.930Z,60.80
2019-04-30T04:18:40.191Z,55.30
2019-04-30T04:19:39.465Z,56.00
2019-04-30T04:20:39.553Z,53.90
2019-04-30T04:21:39.445Z,53.90
2019-04-30T04:22:40.318Z,54.70
2019-04-30T04:23:39.933Z,58.60
2019-04-30T04:24:40.109Z,57.80
2019-04-30T04:25:39.933Z,55.80
2019-04-30T04:26:40.809Z,56.10
2019-04-30T04:27:39.308Z,58.10
2019-04-30T04:28:43.054Z,60.10
2019-04-30T04:29:40.341Z,58.60
2019-04-30T04:30:39.221Z,60.80
2019-04-30T04:31:39.532Z,59.60
2019-04-30T04:32:40.663Z,58.10
2019-04-30T04:33:39.556Z,58.00
2019-04-30T04:34:40.025Z,58.40
2019-04-30T04:35:39.281Z,57.60
2019-04-30T04:36:39.960Z,59.40
2019-04-30T04:37:39.439Z,61.00
2019-04-30T04:38:40.053Z,60.10
2019-04-30T04:39:38.916Z,62.70
2019-04-30T04:40:39.849Z,59.80
2019-04-30T04:41:39.728Z,59.90
2019-04-30T04:42:39.611Z,57.20
2019-04-30T04:43:37.059Z,57.30
2019-04-30T04:44:39.327Z,56.30
2019-04-30T04:45:36.875Z,54.20
2019-04-30T04:46:36.861Z,56.80
2019-04-30T04:47:36.657Z,53.30
2019-04-30T04:48:38.978Z,53.30
2019-04-30T04:49:36.451Z,47.80
2019-04-30T04:50:36.381Z,50.70
2019-04-30T04:51:39.409Z,49.40
2019-04-30T04:52:36.153Z,49.60
2019-04-30T04:53:36.161Z,53.00
2019-04-30T04:54:35.953Z,50.80
2019-04-30T04:55:35.854Z,45.30
2019-04-30T04:56:35.767Z,49.20
2019-04-30T04:57:35.650Z,49.70
2019-04-30T04:58:35.548Z,43.80
2019-04-30T04:59:35.456Z,43.40
2019-04-30T05:00:35.482Z,43.30
2019-04-30T05:01:35.264Z,45.70
2019-04-30T05:02:35.150Z,44.90
2019-04-30T05:03:35.049Z,44.60
2019-04-30T05:04:34.949Z,46.20
2019-04-30T05:05:34.850Z,45.10
2019-04-30T05:06:34.769Z,43.20
2019-04-30T05:07:34.754Z,44.90
2019-04-30T05:08:34.547Z,44.70
2019-04-30T05:09:34.447Z,42.50
2019-04-30T05:10:34.346Z,43.10
2019-04-30T05:11:34.263Z,42.80
2019-04-30T05:12:34.148Z,42.30
2019-04-30T05:13:34.734Z,42.50
2019-04-30T05:14:34.061Z,45.00
2019-04-30T05:15:33.850Z,43.30
2019-04-30T05:16:34.511Z,41.90
2019-04-30T05:17:33.647Z,42.20
2019-04-30T05:18:33.590Z,44.30
2019-04-30T05:19:33.449Z,39.60
2019-04-30T05:20:33.347Z,41.20
2019-04-30T05:21:42.077Z,42.90
2019-04-30T05:22:33.149Z,38.90
2019-04-30T05:23:33.051Z,40.80
2019-04-30T05:24:32.951Z,41.60
2019-04-30T05:25:32.851Z,43.90
2019-04-30T05:26:32.765Z,43.40
2019-04-30T05:27:32.653Z,41.90
2019-04-30T05:28:32.552Z,36.80
2019-04-30T05:29:32.451Z,36.30
2019-04-30T05:30:32.356Z,37.90
2019-04-30T05:31:32.269Z,35.80
2019-04-30T05:32:32.157Z,37.20
2019-04-30T05:33:32.057Z,35.30
2019-04-30T05:34:31.958Z,35.10
2019-04-30T05:35:31.856Z,34.50
2019-04-30T05:36:31.776Z,33.10
2019-04-30T05:37:31.657Z,34.80
2019-04-30T05:38:31.560Z,34.40
2019-04-30T05:39:31.462Z,34.70
2019-04-30T05:40:31.359Z,34.60
2019-04-30T05:41:31.276Z,34.30
2019-04-30T05:42:31.163Z,33.00
2019-04-30T05:43:31.067Z,33.00
2019-04-30T05:44:30.965Z,31.50
2019-04-30T05:45:33.557Z,29.00
2019-04-30T05:46:30.788Z,29.30
2019-04-30T05:47:30.674Z,29.20
2019-04-30T05:48:30.572Z,29.60
2019-04-30T05:49:30.476Z,27.90
2019-04-30T05:50:30.375Z,28.90
2019-04-30T05:51:30.293Z,30.20
2019-04-30T05:52:30.179Z,27.10
2019-04-30T05:53:30.084Z,27.90
2019-04-30T05:54:29.980Z,28.00
2019-04-30T05:55:29.883Z,27.00
2019-04-30T05:56:30.444Z,26.70
2019-04-30T05:57:29.687Z,27.20
2019-04-30T05:58:30.104Z,26.60
2019-04-30T05:59:29.491Z,25.60
2019-04-30T06:00:30.555Z,24.80
2019-04-30T06:01:29.638Z,24.30
2019-04-30T06:02:33.580Z,22.50
2019-04-30T06:03:32.985Z,22.20
2019-04-30T06:04:29.462Z,20.70
2019-04-30T06:05:28.900Z,20.60
2019-04-30T06:06:29.122Z,19.20
2019-04-30T06:07:29.946Z,20.40
2019-04-30T06:08:29.217Z,18.70
2019-04-30T06:09:31.619Z,17.80
2019-04-30T06:10:29.435Z,18.50
2019-04-30T06:11:29.252Z,17.50
2019-04-30T06:12:28.469Z,14.80
2019-04-30T06:13:28.749Z,15.10
2019-04-30T06:14:28.656Z,15.20
2019-04-30T06:15:29.090Z,14.60
2019-04-30T06:16:29.694Z,14.10
2019-04-30T06:17:29.347Z,16.20
2019-04-30T06:18:28.707Z,15.20
2019-04-30T06:19:29.240Z,18.00
2019-04-30T06:20:28.771Z,16.90
2019-04-30T06:21:29.377Z,14.70
2019-04-30T06:22:28.789Z,14.00
2019-04-30T06:23:29.262Z,12.90
2019-04-30T06:24:28.611Z,13.40
2019-04-30T06:25:32.102Z,13.30
2019-04-30T06:26:26.849Z,12.70
2019-04-30T06:27:29.011Z,12.60
2019-04-30T06:28:26.655Z,13.20
2019-04-30T06:29:26.556Z,13.40
2019-04-30T06:30:26.567Z,15.40
2019-04-30T06:31:34.701Z,13.90
2019-04-30T06:32:26.278Z,13.40
2019-04-30T06:33:26.166Z,14.40
2019-04-30T06:34:26.085Z,14.20
2019-04-30T06:35:25.971Z,14.90
2019-04-30T06:36:25.874Z,14.60
2019-04-30T06:37:25.901Z,13.40
2019-04-30T06:38:25.682Z,13.00
2019-04-30T06:39:25.583Z,12.40
2019-04-30T06:40:25.487Z,12.80
2019-04-30T06:41:25.390Z,12.50
2019-04-30T06:42:25.308Z,13.40
2019-04-30T06:43:25.198Z,11.50
2019-04-30T06:44:34.962Z,11.50
2019-04-30T06:45:25.001Z,10.70
2019-04-30T06:46:24.908Z,11.30
2019-04-30T06:47:32.837Z,10.80
2019-04-30T06:48:24.719Z,10.30
2019-04-30T06:49:24.625Z,10.70
2019-04-30T06:50:24.522Z,10.90
2019-04-30T06:51:24.531Z,10.70
2019-04-30T06:52:24.345Z,10.90
2019-04-30T06:53:24.237Z,10.90
2019-04-30T06:54:24.147Z,10.40
2019-04-30T06:55:24.045Z,10.60
2019-04-30T06:56:23.953Z,10.40
2019-04-30T06:57:23.868Z,9.80
2019-04-30T06:58:23.868Z,9.90
2019-04-30T06:59:23.665Z,10.30
2019-04-30T07:00:32.778Z,10.10
2019-04-30T07:01:23.474Z,10.60
2019-04-30T07:02:23.395Z,10.30
2019-04-30T07:03:23.283Z,10.10
2019-04-30T07:04:23.188Z,9.90
2019-04-30T07:05:23.198Z,9.40
2019-04-30T07:06:29.772Z,9.10
2019-04-30T07:07:26.909Z,10.20
2019-04-30T07:08:22.812Z,9.80
2019-04-30T07:09:26.621Z,9.60
2019-04-30T07:10:22.622Z,8.60
2019-04-30T07:11:22.529Z,8.60
2019-04-30T07:12:27.683Z,8.00
2019-04-30T07:13:22.353Z,8.00
2019-04-30T07:14:22.248Z,8.30
2019-04-30T07:15:22.150Z,9.20
2019-04-30T07:16:22.060Z,8.70
2019-04-30T07:17:21.963Z,9.30
2019-04-30T07:18:21.881Z,9.50
2019-04-30T07:19:31.819Z,9.20
2019-04-30T07:20:21.682Z,9.80
2019-04-30T07:21:21.586Z,8.90
2019-04-30T07:22:36.698Z,9.00
2019-04-30T07:23:21.414Z,9.00
2019-04-30T07:24:21.306Z,8.50
2019-04-30T07:25:21.214Z,9.00
2019-04-30T07:26:24.452Z,8.80
2019-04-30T07:27:24.140Z,9.00
2019-04-30T07:28:20.944Z,9.70
2019-04-30T07:29:20.834Z,8.80
2019-04-30T07:30:20.741Z,8.50
2019-04-30T07:31:20.649Z,8.90
2019-04-30T07:32:20.682Z,9.60
2019-04-30T07:33:20.956Z,8.60
2019-04-30T07:34:20.388Z,8.80
2019-04-30T07:35:20.276Z,9.70
2019-04-30T07:36:20.181Z,10.90
2019-04-30T07:37:24.125Z,10.10
2019-04-30T07:38:20.010Z,9.80
2019-04-30T07:39:23.410Z,12.90
2019-04-30T07:40:19.808Z,14.80
2019-04-30T07:41:19.717Z,11.80
2019-04-30T07:42:19.622Z,11.80
2019-04-30T07:43:19.542Z,12.10
2019-04-30T07:44:31.216Z,15.30
2019-04-30T07:45:19.657Z,10.90
2019-04-30T07:46:20.022Z,12.60
2019-04-30T07:47:19.690Z,10.20
2019-04-30T07:48:25.872Z,8.80
2019-04-30T07:49:20.546Z,9.40
2019-04-30T07:50:21.572Z,9.40
2019-04-30T07:51:20.927Z,15.70
2019-04-30T07:52:21.296Z,8.50
2019-04-30T07:53:18.814Z,8.00
2019-04-30T07:54:19.013Z,8.40
2019-04-30T07:55:19.654Z,8.40
2019-04-30T07:56:25.710Z,9.00
2019-04-30T07:57:19.237Z,7.50
2019-04-30T07:58:20.525Z,8.40
2019-04-30T07:59:20.127Z,7.60
2019-04-30T08:00:19.315Z,7.50
2019-04-30T08:01:19.582Z,7.90
2019-04-30T08:02:20.570Z,7.80
2019-04-30T08:03:20.587Z,8.00
2019-04-30T08:04:18.843Z,8.30
2019-04-30T08:05:19.287Z,7.90
2019-04-30T08:06:19.010Z,7.30
2019-04-30T08:07:17.740Z,8.50
2019-04-30T08:08:24.379Z,8.20
2019-04-30T08:09:21.879Z,7.80
2019-04-30T08:10:18.794Z,7.10
2019-04-30T08:11:23.910Z,7.60
2019-04-30T08:12:25.631Z,6.90
2019-04-30T08:13:17.249Z,7.30
2019-04-30T08:14:18.494Z,7.40
2019-04-30T08:15:16.560Z,7.40
2019-04-30T08:16:18.598Z,7.20
2019-04-30T08:17:16.376Z,7.50
2019-04-30T08:18:16.285Z,8.30
2019-04-30T08:19:16.208Z,7.00
2019-04-30T08:20:16.103Z,7.90
2019-04-30T08:21:16.010Z,6.90
2019-04-30T08:22:15.919Z,7.10
2019-04-30T08:23:31.485Z,8.50
2019-04-30T08:24:15.737Z,7.00
2019-04-30T08:25:15.681Z,7.10
2019-04-30T08:26:15.553Z,7.20
2019-04-30T08:27:15.464Z,7.30
2019-04-30T08:28:15.374Z,7.50
2019-04-30T08:29:15.285Z,7.00
2019-04-30T08:30:25.634Z,7.50
2019-04-30T08:31:15.631Z,8.80
2019-04-30T08:32:15.007Z,7.60
2019-04-30T08:33:14.916Z,7.80
2019-04-30T08:34:14.824Z,8.40
2019-04-30T08:35:14.762Z,7.70
2019-04-30T08:36:14.648Z,8.00
2019-04-30T08:37:17.586Z,9.00
2019-04-30T08:38:14.461Z,8.40
2019-04-30T08:39:14.369Z,7.60
2019-04-30T08:40:14.292Z,7.80
2019-04-30T08:41:14.187Z,7.90
2019-04-30T08:42:14.097Z,8.20
2019-04-30T08:43:14.007Z,8.30
2019-04-30T08:44:13.915Z,7.50
2019-04-30T08:45:13.833Z,7.40
2019-04-30T08:46:13.735Z,7.50
2019-04-30T08:47:13.642Z,7.30
2019-04-30T08:48:13.557Z,7.60
2019-04-30T08:49:13.651Z,7.00
2019-04-30T08:50:13.444Z,7.80
2019-04-30T08:51:14.086Z,7.60
2019-04-30T08:52:13.190Z,7.10
2019-04-30T08:53:26.289Z,8.00
2019-04-30T08:54:13.007Z,7.70
2019-04-30T08:55:16.748Z,7.40
2019-04-30T08:56:12.827Z,7.20
2019-04-30T08:57:12.734Z,8.30
2019-04-30T08:58:15.166Z,7.40
2019-04-30T08:59:12.552Z,7.20
2019-04-30T09:00:14.963Z,7.60
2019-04-30T09:01:12.373Z,7.30
2019-04-30T09:02:15.836Z,7.40
2019-04-30T09:03:12.190Z,8.10
2019-04-30T09:04:12.099Z,9.40
2019-04-30T09:05:12.023Z,8.20
2019-04-30T09:06:11.922Z,7.60
2019-04-30T09:07:11.829Z,7.70
2019-04-30T09:08:11.737Z,7.50
2019-04-30T09:09:11.648Z,7.40
2019-04-30T09:10:11.574Z,7.70
2019-04-30T09:11:22.654Z,7.80
2019-04-30T09:12:11.379Z,7.30
2019-04-30T09:13:11.285Z,8.10
2019-04-30T09:14:11.196Z,7.90
2019-04-30T09:15:11.119Z,7.40
2019-04-30T09:16:11.016Z,7.40
2019-04-30T09:17:10.936Z,7.70
2019-04-30T09:18:12.643Z,6.90
2019-04-30T09:19:10.744Z,8.20
2019-04-30T09:20:11.094Z,8.00
2019-04-30T09:21:10.568Z,7.70
2019-04-30T09:22:15.019Z,7.70
2019-04-30T09:23:11.248Z,8.20
2019-04-30T09:24:10.295Z,7.80
2019-04-30T09:25:10.325Z,7.80
2019-04-30T09:26:10.116Z,7.70
2019-04-30T09:27:10.804Z,7.90
2019-04-30T09:28:09.937Z,7.80
2019-04-30T09:29:09.853Z,8.00
2019-04-30T09:30:10.382Z,7.60
2019-04-30T09:31:09.667Z,7.90
2019-04-30T09:32:09.683Z,7.20
2019-04-30T09:33:11.130Z,7.50
2019-04-30T09:34:17.172Z,7.60
2019-04-30T09:35:09.611Z,7.80
2019-04-30T09:36:09.332Z,7.40
2019-04-30T09:37:09.153Z,7.40
2019-04-30T09:38:09.235Z,6.90
2019-04-30T09:39:09.097Z,8.30
2019-04-30T09:40:17.638Z,8.10
2019-04-30T09:41:09.300Z,7.60
2019-04-30T09:42:09.264Z,7.40
2019-04-30T09:43:08.747Z,7.00
2019-04-30T09:44:10.030Z,7.80
2019-04-30T09:45:08.827Z,7.10
2019-04-30T09:46:18.969Z,7.50
2019-04-30T09:47:08.911Z,9.20
2019-04-30T09:48:09.411Z,7.60
2019-04-30T09:49:09.640Z,9.30
2019-04-30T09:50:09.139Z,8.30
2019-04-30T09:51:10.179Z,7.30
2019-04-30T09:52:09.072Z,8.00
2019-04-30T09:53:09.636Z,7.20
2019-04-30T09:54:11.688Z,7.60
2019-04-30T09:55:09.426Z,7.10
2019-04-30T09:56:09.421Z,7.40
2019-04-30T09:57:08.775Z,8.90
2019-04-30T09:58:16.215Z,9.00
2019-04-30T09:59:09.027Z,7.50
2019-04-30T10:00:08.955Z,8.90
2019-04-30T10:01:09.284Z,8.50
2019-04-30T10:02:09.156Z,8.00
2019-04-30T10:03:09.636Z,9.00
2019-04-30T10:04:07.027Z,7.80
2019-04-30T10:05:07.106Z,7.20
2019-04-30T10:06:06.571Z,6.90
2019-04-30T10:07:06.577Z,8.20
2019-04-30T10:08:06.378Z,8.10
2019-04-30T10:09:06.292Z,7.40
2019-04-30T10:10:08.874Z,8.20
2019-04-30T10:11:06.116Z,7.40
2019-04-30T10:12:06.040Z,6.80
2019-04-30T10:13:05.935Z,7.10
2019-04-30T10:14:05.959Z,7.50
2019-04-30T10:15:05.760Z,6.90
2019-04-30T10:16:05.675Z,6.90
2019-04-30T10:17:05.601Z,7.30
2019-04-30T10:18:05.496Z,10.10
2019-04-30T10:19:05.408Z,7.90
2019-04-30T10:20:05.444Z,10.20
2019-04-30T10:21:05.234Z,8.10
2019-04-30T10:22:05.167Z,7.00
2019-04-30T10:23:05.055Z,7.00
2019-04-30T10:24:14.826Z,8.80
2019-04-30T10:25:04.879Z,6.60
2019-04-30T10:26:04.791Z,6.30
2019-04-30T10:27:07.159Z,7.00
2019-04-30T10:28:04.624Z,7.20
2019-04-30T10:29:04.527Z,6.60
2019-04-30T10:30:04.438Z,7.80
2019-04-30T10:31:04.351Z,7.60
2019-04-30T10:32:04.280Z,9.50
2019-04-30T10:33:04.177Z,8.30
2019-04-30T10:34:04.089Z,8.20
2019-04-30T10:35:04.000Z,6.50
2019-04-30T10:36:03.914Z,7.10
2019-04-30T10:37:03.840Z,8.00
2019-04-30T10:38:03.737Z,9.00
2019-04-30T10:39:03.648Z,7.50
2019-04-30T10:40:03.562Z,7.10
2019-04-30T10:41:03.475Z,8.40
2019-04-30T10:42:03.402Z,6.60
2019-04-30T10:43:03.301Z,7.50
2019-04-30T10:44:03.211Z,6.40
2019-04-30T10:45:03.126Z,6.30
2019-04-30T10:46:03.037Z,7.80
2019-04-30T10:47:02.966Z,7.00
2019-04-30T10:48:02.860Z,7.10
2019-04-30T10:49:02.772Z,7.80
2019-04-30T10:50:02.687Z,7.10
2019-04-30T10:51:02.598Z,7.20
2019-04-30T10:52:02.513Z,8.40
2019-04-30T10:53:02.437Z,7.60
2019-04-30T10:54:02.336Z,8.10
2019-04-30T10:55:04.439Z,8.30
2019-04-30T10:56:02.161Z,7.70
2019-04-30T10:57:02.090Z,7.20
2019-04-30T10:58:01.987Z,7.10
2019-04-30T10:59:01.902Z,7.50
2019-04-30T11:00:01.815Z,7.10
2019-04-30T11:01:01.951Z,7.00
2019-04-30T11:02:01.640Z,6.70
2019-04-30T11:03:01.565Z,7.40
2019-04-30T11:04:01.466Z,8.60
2019-04-30T11:05:01.374Z,7.00
2019-04-30T11:06:01.287Z,8.10
2019-04-30T11:07:01.201Z,6.80
2019-04-30T11:08:01.128Z,6.30
2019-04-30T11:09:01.025Z,6.80
2019-04-30T11:10:00.942Z,6.50
2019-04-30T11:11:00.850Z,6.20
2019-04-30T11:12:03.021Z,6.60
2019-04-30T11:13:00.689Z,6.60
2019-04-30T11:14:00.586Z,7.70
2019-04-30T11:15:00.523Z,8.50
2019-04-30T11:16:12.175Z,9.10
2019-04-30T11:17:00.664Z,6.50
2019-04-30T11:18:00.458Z,6.80
2019-04-30T11:19:00.196Z,6.90
2019-04-30T11:20:00.264Z,6.30
2019-04-30T11:21:00.077Z,6.60
2019-04-30T11:22:00.155Z,7.20
2019-04-30T11:23:00.014Z,6.40
2019-04-30T11:23:59.853Z,7.00
2019-04-30T11:25:02.631Z,6.80
2019-04-30T11:26:00.434Z,6.80
2019-04-30T11:27:00.521Z,8.20
2019-04-30T11:27:59.811Z,6.20
2019-04-30T11:28:59.462Z,6.70
2019-04-30T11:30:03.189Z,6.80
2019-04-30T11:30:59.210Z,6.40
2019-04-30T11:31:59.157Z,8.20
2019-04-30T11:32:59.140Z,7.70
2019-04-30T11:33:58.839Z,7.10
2019-04-30T11:34:58.750Z,7.60
2019-04-30T11:36:03.098Z,6.60
2019-04-30T11:36:58.673Z,6.30
2019-04-30T11:37:58.502Z,6.30
2019-04-30T11:38:58.710Z,6.20
2019-04-30T11:39:58.319Z,8.20
2019-04-30T11:40:58.477Z,6.60
2019-04-30T11:41:58.162Z,6.20
2019-04-30T11:42:58.069Z,6.80
2019-04-30T11:43:59.446Z,8.50
2019-04-30T11:44:58.696Z,9.10
2019-04-30T11:46:00.069Z,6.40
2019-04-30T11:46:59.472Z,6.60
2019-04-30T11:48:00.402Z,6.30
2019-04-30T11:48:58.695Z,6.50
2019-04-30T11:49:57.453Z,7.30
2019-04-30T11:50:59.429Z,7.60
2019-04-30T11:51:57.297Z,6.30
2019-04-30T11:53:14.001Z,6.60
2019-04-30T11:53:59.200Z,6.40
2019-04-30T11:54:57.007Z,8.40
2019-04-30T11:55:59.086Z,7.00
2019-04-30T11:56:58.677Z,6.60
2019-04-30T11:57:56.876Z,6.80
2019-04-30T11:58:58.745Z,7.90
2019-04-30T11:59:56.575Z,6.80
2019-04-30T12:00:56.486Z,7.40
2019-04-30T12:01:56.400Z,7.00
2019-04-30T12:02:56.317Z,6.60
2019-04-30T12:03:56.244Z,7.00
2019-04-30T12:04:56.252Z,7.30
2019-04-30T12:05:56.073Z,6.80
2019-04-30T12:06:55.973Z,7.70
2019-04-30T12:07:55.881Z,6.70
2019-04-30T12:08:55.830Z,8.00
2019-04-30T12:09:55.712Z,6.40
2019-04-30T12:10:55.630Z,7.40
2019-04-30T12:11:55.638Z,7.00
2019-04-30T12:12:55.451Z,6.80
2019-04-30T12:13:55.379Z,6.60
2019-04-30T12:14:55.275Z,7.10
2019-04-30T12:15:55.190Z,6.70
2019-04-30T12:16:55.102Z,6.70
2019-04-30T12:17:55.019Z,9.00
2019-04-30T12:18:55.055Z,6.50
2019-04-30T12:19:54.860Z,9.30
2019-04-30T12:20:54.758Z,6.80
2019-04-30T12:21:54.669Z,6.70
2019-04-30T12:22:54.585Z,7.30
2019-04-30T12:23:54.514Z,7.20
2019-04-30T12:25:02.693Z,7.30
2019-04-30T12:25:54.430Z,6.90
2019-04-30T12:26:54.237Z,8.20
2019-04-30T12:27:54.149Z,7.50
2019-04-30T12:28:54.077Z,7.70
2019-04-30T12:29:53.976Z,6.70
2019-04-30T12:30:53.890Z,18.10
2019-04-30T12:31:53.806Z,6.80
2019-04-30T12:32:53.828Z,7.20
2019-04-30T12:33:53.643Z,9.30
2019-04-30T12:34:53.543Z,6.90
2019-04-30T12:35:53.453Z,7.30
2019-04-30T12:36:53.366Z,6.90
2019-04-30T12:37:53.282Z,7.60
2019-04-30T12:38:53.207Z,7.30
2019-04-30T12:39:53.215Z,6.80
2019-04-30T12:40:53.022Z,6.80
2019-04-30T12:41:52.931Z,7.20
2019-04-30T12:42:52.845Z,7.50
2019-04-30T12:43:52.763Z,6.40
2019-04-30T12:44:52.684Z,8.00
2019-04-30T12:46:02.214Z,6.90
2019-04-30T12:46:52.494Z,8.80
2019-04-30T12:47:52.415Z,6.80
2019-04-30T12:48:52.324Z,6.20
2019-04-30T12:49:52.253Z,6.50
2019-04-30T12:50:52.149Z,7.00
2019-04-30T12:51:52.061Z,6.80
2019-04-30T12:52:51.982Z,8.00
2019-04-30T12:53:51.888Z,7.30
2019-04-30T12:54:51.816Z,8.60
2019-04-30T12:55:51.711Z,7.40
2019-04-30T12:56:51.625Z,7.10
2019-04-30T12:57:58.627Z,6.60
2019-04-30T12:58:51.457Z,6.40
2019-04-30T12:59:51.380Z,7.30
2019-04-30T13:00:51.277Z,7.00
2019-04-30T13:01:51.190Z,7.20